sensor_id;sensor_type;location;lat;lon;timestamp;pressure;altitude;pressure_sealevel;temperature;humidity
20889;BME280;10604;51.976;7.594;2023-01-29T00:00:47;102272.97;;;0.33;82.61
20889;BME280;10604;51.976;7.594;2023-01-29T00:03:12;102272.84;;;0.30;82.67
20889;BME280;10604;51.976;7.594;2023-01-29T00:05:38;102259.28;;;0.37;81.87
20889;BME280;10604;51.976;7.594;2023-01-29T00:08:03;102260.34;;;0.43;81.57
20889;BME280;10604;51.976;7.594;2023-01-29T00:10:29;102256.19;;;0.48;81.43
20889;BME280;10604;51.976;7.594;2023-01-29T00:12:54;102245.47;;;0.38;81.60
20889;BME280;10604;51.976;7.594;2023-01-29T00:15:19;102255.97;;;0.42;81.16
20889;BME280;10604;51.976;7.594;2023-01-29T00:17:45;102256.63;;;0.36;81.51
20889;BME280;10604;51.976;7.594;2023-01-29T00:20:10;102243.41;;;0.28;82.12
20889;BME280;10604;51.976;7.594;2023-01-29T00:22:36;102237.41;;;0.31;81.52
20889;BME280;10604;51.976;7.594;2023-01-29T00:25:01;102235.63;;;0.30;82.40
20889;BME280;10604;51.976;7.594;2023-01-29T00:27:27;102240.19;;;0.35;81.83
20889;BME280;10604;51.976;7.594;2023-01-29T00:29:52;102235.00;;;0.35;81.46
20889;BME280;10604;51.976;7.594;2023-01-29T00:32:36;102238.09;;;0.25;81.98
20889;BME280;10604;51.976;7.594;2023-01-29T00:35:02;102233.63;;;0.21;82.86
20889;BME280;10604;51.976;7.594;2023-01-29T00:37:27;102231.13;;;0.24;82.77
20889;BME280;10604;51.976;7.594;2023-01-29T00:39:53;102239.41;;;0.14;83.28
20889;BME280;10604;51.976;7.594;2023-01-29T00:42:18;102237.88;;;0.19;82.72
20889;BME280;10604;51.976;7.594;2023-01-29T00:45:07;102238.44;;;0.36;82.59
20889;BME280;10604;51.976;7.594;2023-01-29T00:47:32;102246.69;;;0.24;82.49
20889;BME280;10604;51.976;7.594;2023-01-29T00:49:59;102250.78;;;0.42;82.25
20889;BME280;10604;51.976;7.594;2023-01-29T00:52:25;102248.88;;;0.37;82.00
20889;BME280;10604;51.976;7.594;2023-01-29T00:54:59;102250.56;;;0.35;82.05
20889;BME280;10604;51.976;7.594;2023-01-29T00:57:26;102248.59;;;0.28;82.22
20889;BME280;10604;51.976;7.594;2023-01-29T00:59:52;102243.63;;;0.36;82.09
20889;BME280;10604;51.976;7.594;2023-01-29T01:02:18;102238.63;;;0.41;82.03
20889;BME280;10604;51.976;7.594;2023-01-29T01:05:03;102233.31;;;0.37;82.17
20889;BME280;10604;51.976;7.594;2023-01-29T01:07:30;102238.63;;;0.41;82.41
20889;BME280;10604;51.976;7.594;2023-01-29T01:09:55;102224.84;;;0.42;82.56
20889;BME280;10604;51.976;7.594;2023-01-29T01:12:39;102220.47;;;0.41;82.45
20889;BME280;10604;51.976;7.594;2023-01-29T01:15:05;102212.47;;;0.34;82.22
20889;BME280;10604;51.976;7.594;2023-01-29T01:17:31;102200.94;;;0.52;82.29
20889;BME280;10604;51.976;7.594;2023-01-29T01:19:56;102198.69;;;0.61;81.38
20889;BME280;10604;51.976;7.594;2023-01-29T01:22:21;102188.81;;;0.51;81.87
20889;BME280;10604;51.976;7.594;2023-01-29T01:24:47;102193.69;;;0.42;81.93
20889;BME280;10604;51.976;7.594;2023-01-29T01:27:12;102187.78;;;0.46;82.10
20889;BME280;10604;51.976;7.594;2023-01-29T01:29:38;102191.94;;;0.41;82.20
20889;BME280;10604;51.976;7.594;2023-01-29T01:32:04;102195.34;;;0.39;82.95
20889;BME280;10604;51.976;7.594;2023-01-29T01:34:30;102181.06;;;0.52;81.70
20889;BME280;10604;51.976;7.594;2023-01-29T01:36:55;102181.56;;;0.41;81.83
20889;BME280;10604;51.976;7.594;2023-01-29T01:39:22;102190.03;;;0.36;82.37
20889;BME280;10604;51.976;7.594;2023-01-29T01:41:47;102187.50;;;0.38;82.22
20889;BME280;10604;51.976;7.594;2023-01-29T01:47:16;102189.34;;;0.41;82.12
20889;BME280;10604;51.976;7.594;2023-01-29T01:49:45;102184.41;;;0.48;81.82
20889;BME280;10604;51.976;7.594;2023-01-29T01:52:12;102182.72;;;0.50;81.52
20889;BME280;10604;51.976;7.594;2023-01-29T01:54:39;102185.59;;;0.58;81.21
20889;BME280;10604;51.976;7.594;2023-01-29T01:57:09;102186.63;;;0.37;81.52
20889;BME280;10604;51.976;7.594;2023-01-29T01:59:42;102181.34;;;0.34;81.84
20889;BME280;10604;51.976;7.594;2023-01-29T02:02:10;102191.81;;;0.37;82.33
20889;BME280;10604;51.976;7.594;2023-01-29T02:04:55;102183.31;;;0.42;81.63
20889;BME280;10604;51.976;7.594;2023-01-29T02:07:44;102193.03;;;0.47;81.91
20889;BME280;10604;51.976;7.594;2023-01-29T02:10:35;102186.94;;;0.47;81.85
20889;BME280;10604;51.976;7.594;2023-01-29T02:13:05;102189.84;;;0.30;82.31
20889;BME280;10604;51.976;7.594;2023-01-29T02:15:32;102183.13;;;0.35;82.73
20889;BME280;10604;51.976;7.594;2023-01-29T02:17:57;102202.19;;;0.37;82.87
20889;BME280;10604;51.976;7.594;2023-01-29T02:20:26;102214.06;;;0.31;82.85
20889;BME280;10604;51.976;7.594;2023-01-29T02:23:12;102218.22;;;0.50;82.69
20889;BME280;10604;51.976;7.594;2023-01-29T02:25:49;102228.78;;;0.56;81.71
20889;BME280;10604;51.976;7.594;2023-01-29T02:28:46;102230.31;;;0.51;81.80
20889;BME280;10604;51.976;7.594;2023-01-29T02:31:34;102227.34;;;0.64;81.75
20889;BME280;10604;51.976;7.594;2023-01-29T02:37:03;102232.00;;;0.49;81.84
20889;BME280;10604;51.976;7.594;2023-01-29T02:39:32;102226.59;;;0.43;82.07
20889;BME280;10604;51.976;7.594;2023-01-29T02:44:47;102233.31;;;0.61;81.73
20889;BME280;10604;51.976;7.594;2023-01-29T02:47:27;102224.22;;;0.49;82.32
20889;BME280;10604;51.976;7.594;2023-01-29T02:50:07;102211.47;;;0.55;82.27
20889;BME280;10604;51.976;7.594;2023-01-29T02:55:27;102227.03;;;0.55;82.54
20889;BME280;10604;51.976;7.594;2023-01-29T02:57:58;102219.94;;;0.51;82.92
20889;BME280;10604;51.976;7.594;2023-01-29T03:00:29;102225.13;;;0.51;82.74
20889;BME280;10604;51.976;7.594;2023-01-29T03:08:31;102223.06;;;0.66;81.41
20889;BME280;10604;51.976;7.594;2023-01-29T03:11:08;102220.06;;;0.54;81.74
20889;BME280;10604;51.976;7.594;2023-01-29T03:13:59;102223.59;;;0.56;81.88
20889;BME280;10604;51.976;7.594;2023-01-29T03:16:49;102222.88;;;0.60;82.09
20889;BME280;10604;51.976;7.594;2023-01-29T03:19:34;102223.41;;;0.50;82.38
20889;BME280;10604;51.976;7.594;2023-01-29T03:22:04;102222.59;;;0.52;82.57
20889;BME280;10604;51.976;7.594;2023-01-29T03:24:40;102223.06;;;0.66;82.06
20889;BME280;10604;51.976;7.594;2023-01-29T03:27:49;102206.06;;;0.49;82.44
20889;BME280;10604;51.976;7.594;2023-01-29T03:30:40;102208.47;;;0.44;82.84
20889;BME280;10604;51.976;7.594;2023-01-29T03:33:30;102209.28;;;0.42;82.69
20889;BME280;10604;51.976;7.594;2023-01-29T03:36:05;102203.56;;;0.52;82.54
20889;BME280;10604;51.976;7.594;2023-01-29T03:38:33;102205.94;;;0.46;82.54
20889;BME280;10604;51.976;7.594;2023-01-29T03:41:04;102198.28;;;0.49;82.77
20889;BME280;10604;51.976;7.594;2023-01-29T03:46:07;102200.75;;;0.46;82.35
20889;BME280;10604;51.976;7.594;2023-01-29T03:49:14;102184.97;;;0.39;82.70
20889;BME280;10604;51.976;7.594;2023-01-29T03:51:37;102188.94;;;0.54;82.52
20889;BME280;10604;51.976;7.594;2023-01-29T03:54:16;102186.31;;;0.54;82.82
20889;BME280;10604;51.976;7.594;2023-01-29T04:01:51;102166.31;;;0.50;82.92
20889;BME280;10604;51.976;7.594;2023-01-29T04:04:33;102150.94;;;0.56;83.00
20889;BME280;10604;51.976;7.594;2023-01-29T04:07:09;102154.25;;;0.52;82.87
20889;BME280;10604;51.976;7.594;2023-01-29T04:09:49;102140.25;;;0.47;83.00
20889;BME280;10604;51.976;7.594;2023-01-29T04:12:20;102133.69;;;0.58;83.06
20889;BME280;10604;51.976;7.594;2023-01-29T04:14:50;102131.66;;;0.74;82.83
20889;BME280;10604;51.976;7.594;2023-01-29T04:17:21;102131.09;;;0.58;82.72
20889;BME280;10604;51.976;7.594;2023-01-29T04:19:49;102137.78;;;0.51;83.50
20889;BME280;10604;51.976;7.594;2023-01-29T04:22:19;102147.53;;;0.57;83.35
20889;BME280;10604;51.976;7.594;2023-01-29T04:24:47;102145.31;;;0.69;83.14
20889;BME280;10604;51.976;7.594;2023-01-29T04:27:32;102133.09;;;0.66;83.05
20889;BME280;10604;51.976;7.594;2023-01-29T04:30:28;102126.94;;;0.63;82.73
20889;BME280;10604;51.976;7.594;2023-01-29T04:43:25;102119.25;;;0.66;82.40
20889;BME280;10604;51.976;7.594;2023-01-29T04:46:08;102117.97;;;0.80;82.69
20889;BME280;10604;51.976;7.594;2023-01-29T04:48:58;102106.38;;;0.69;82.65
20889;BME280;10604;51.976;7.594;2023-01-29T04:57:12;102086.34;;;0.65;82.67
20889;BME280;10604;51.976;7.594;2023-01-29T04:59:43;102080.44;;;0.69;83.01
20889;BME280;10604;51.976;7.594;2023-01-29T05:02:12;102077.19;;;0.76;82.55
20889;BME280;10604;51.976;7.594;2023-01-29T05:04:40;102078.41;;;0.60;82.51
20889;BME280;10604;51.976;7.594;2023-01-29T05:07:10;102083.97;;;0.71;82.66
20889;BME280;10604;51.976;7.594;2023-01-29T05:09:38;102079.78;;;0.76;82.17
20889;BME280;10604;51.976;7.594;2023-01-29T05:12:06;102083.06;;;0.70;82.43
20889;BME280;10604;51.976;7.594;2023-01-29T05:14:33;102075.22;;;0.69;82.07
20889;BME280;10604;51.976;7.594;2023-01-29T05:17:03;102073.34;;;0.65;82.15
20889;BME280;10604;51.976;7.594;2023-01-29T05:19:30;102078.84;;;0.74;82.30
20889;BME280;10604;51.976;7.594;2023-01-29T05:21:56;102073.47;;;0.68;82.76
20889;BME280;10604;51.976;7.594;2023-01-29T05:24:24;102091.00;;;0.75;82.69
20889;BME280;10604;51.976;7.594;2023-01-29T05:26:52;102091.09;;;0.78;82.67
20889;BME280;10604;51.976;7.594;2023-01-29T05:29:44;102094.78;;;0.86;82.82
20889;BME280;10604;51.976;7.594;2023-01-29T05:32:09;102093.84;;;0.83;81.81
20889;BME280;10604;51.976;7.594;2023-01-29T05:34:35;102102.16;;;0.72;81.86
20889;BME280;10604;51.976;7.594;2023-01-29T05:37:01;102108.53;;;0.82;82.08
20889;BME280;10604;51.976;7.594;2023-01-29T05:39:26;102106.94;;;0.87;82.19
20889;BME280;10604;51.976;7.594;2023-01-29T05:41:52;102111.88;;;0.78;82.49
20889;BME280;10604;51.976;7.594;2023-01-29T05:44:17;102119.03;;;0.85;82.11
20889;BME280;10604;51.976;7.594;2023-01-29T05:46:43;102110.50;;;0.89;81.69
20889;BME280;10604;51.976;7.594;2023-01-29T05:49:09;102112.72;;;0.77;82.54
20889;BME280;10604;51.976;7.594;2023-01-29T05:51:34;102111.88;;;0.78;82.43
20889;BME280;10604;51.976;7.594;2023-01-29T05:53:59;102106.88;;;0.84;82.49
20889;BME280;10604;51.976;7.594;2023-01-29T05:56:25;102111.19;;;0.84;82.33
20889;BME280;10604;51.976;7.594;2023-01-29T05:58:50;102106.69;;;0.78;82.66
20889;BME280;10604;51.976;7.594;2023-01-29T06:01:19;102114.56;;;0.81;82.50
20889;BME280;10604;51.976;7.594;2023-01-29T06:03:45;102115.56;;;0.86;82.27
20889;BME280;10604;51.976;7.594;2023-01-29T06:06:11;102118.41;;;0.94;82.27
20889;BME280;10604;51.976;7.594;2023-01-29T06:08:36;102118.22;;;0.88;82.27
20889;BME280;10604;51.976;7.594;2023-01-29T06:11:02;102107.50;;;0.77;82.93
20889;BME280;10604;51.976;7.594;2023-01-29T06:13:29;102104.81;;;0.74;82.98
20889;BME280;10604;51.976;7.594;2023-01-29T06:15:54;102105.88;;;0.81;83.73
20889;BME280;10604;51.976;7.594;2023-01-29T06:18:19;102115.50;;;0.83;83.46
20889;BME280;10604;51.976;7.594;2023-01-29T06:20:45;102120.97;;;0.92;82.92
20889;BME280;10604;51.976;7.594;2023-01-29T06:23:10;102103.13;;;1.03;82.47
20889;BME280;10604;51.976;7.594;2023-01-29T06:25:36;102108.44;;;1.06;82.77
20889;BME280;10604;51.976;7.594;2023-01-29T06:28:01;102105.59;;;0.98;83.33
20889;BME280;10604;51.976;7.594;2023-01-29T06:30:26;102113.28;;;0.95;83.35
20889;BME280;10604;51.976;7.594;2023-01-29T06:32:56;102124.59;;;0.97;83.10
20889;BME280;10604;51.976;7.594;2023-01-29T06:35:23;102117.00;;;1.03;82.89
20889;BME280;10604;51.976;7.594;2023-01-29T06:37:48;102121.06;;;0.95;82.88
20889;BME280;10604;51.976;7.594;2023-01-29T06:40:14;102123.19;;;1.08;82.58
20889;BME280;10604;51.976;7.594;2023-01-29T06:42:39;102125.06;;;1.12;82.34
20889;BME280;10604;51.976;7.594;2023-01-29T06:45:05;102113.00;;;1.14;82.06
20889;BME280;10604;51.976;7.594;2023-01-29T06:47:31;102111.94;;;1.08;82.23
20889;BME280;10604;51.976;7.594;2023-01-29T06:49:56;102129.22;;;1.06;82.63
20889;BME280;10604;51.976;7.594;2023-01-29T06:52:21;102114.41;;;1.03;82.36
20889;BME280;10604;51.976;7.594;2023-01-29T06:54:47;102106.56;;;1.02;82.47
20889;BME280;10604;51.976;7.594;2023-01-29T06:57:12;102119.78;;;1.09;82.96
20889;BME280;10604;51.976;7.594;2023-01-29T06:59:38;102119.69;;;1.06;83.16
20889;BME280;10604;51.976;7.594;2023-01-29T07:02:03;102114.75;;;1.15;81.91
20889;BME280;10604;51.976;7.594;2023-01-29T07:04:28;102106.06;;;1.13;81.94
20889;BME280;10604;51.976;7.594;2023-01-29T07:06:54;102107.53;;;1.05;82.41
20889;BME280;10604;51.976;7.594;2023-01-29T07:09:19;102110.78;;;0.98;82.29
20889;BME280;10604;51.976;7.594;2023-01-29T07:11:44;102098.81;;;1.03;82.59
20889;BME280;10604;51.976;7.594;2023-01-29T07:14:10;102101.66;;;1.11;82.73
20889;BME280;10604;51.976;7.594;2023-01-29T07:16:35;102111.03;;;1.07;82.65
20889;BME280;10604;51.976;7.594;2023-01-29T07:19:00;102102.34;;;1.05;82.68
20889;BME280;10604;51.976;7.594;2023-01-29T07:21:26;102099.09;;;1.12;82.39
20889;BME280;10604;51.976;7.594;2023-01-29T07:23:52;102105.13;;;1.11;82.19
20889;BME280;10604;51.976;7.594;2023-01-29T07:26:17;102099.94;;;1.11;82.48
20889;BME280;10604;51.976;7.594;2023-01-29T07:28:42;102100.75;;;1.10;83.00
20889;BME280;10604;51.976;7.594;2023-01-29T07:31:10;102107.91;;;1.17;83.07
20889;BME280;10604;51.976;7.594;2023-01-29T07:33:36;102108.09;;;1.24;82.98
20889;BME280;10604;51.976;7.594;2023-01-29T07:36:06;102102.72;;;1.17;83.07
20889;BME280;10604;51.976;7.594;2023-01-29T07:38:31;102102.88;;;1.24;82.27
20889;BME280;10604;51.976;7.594;2023-01-29T07:40:57;102113.47;;;1.30;81.98
20889;BME280;10604;51.976;7.594;2023-01-29T07:43:22;102111.63;;;1.26;81.96
20889;BME280;10604;51.976;7.594;2023-01-29T07:45:49;102111.69;;;1.29;82.68
20889;BME280;10604;51.976;7.594;2023-01-29T07:48:14;102107.78;;;1.43;82.05
20889;BME280;10604;51.976;7.594;2023-01-29T07:50:40;102106.00;;;1.40;82.08
20889;BME280;10604;51.976;7.594;2023-01-29T07:53:05;102094.63;;;1.37;81.93
20889;BME280;10604;51.976;7.594;2023-01-29T07:55:32;102089.25;;;1.31;82.19
20889;BME280;10604;51.976;7.594;2023-01-29T07:57:59;102087.66;;;1.36;82.26
20889;BME280;10604;51.976;7.594;2023-01-29T08:00:25;102090.91;;;1.29;82.14
20889;BME280;10604;51.976;7.594;2023-01-29T08:02:50;102091.13;;;1.36;81.79
20889;BME280;10604;51.976;7.594;2023-01-29T08:05:16;102086.97;;;1.41;81.38
20889;BME280;10604;51.976;7.594;2023-01-29T08:07:41;102091.97;;;1.35;82.05
20889;BME280;10604;51.976;7.594;2023-01-29T08:10:07;102088.25;;;1.57;81.67
20889;BME280;10604;51.976;7.594;2023-01-29T08:12:32;102085.31;;;1.45;82.05
20889;BME280;10604;51.976;7.594;2023-01-29T08:14:58;102093.06;;;1.43;81.79
20889;BME280;10604;51.976;7.594;2023-01-29T08:17:23;102083.44;;;1.39;81.32
20889;BME280;10604;51.976;7.594;2023-01-29T08:19:48;102072.06;;;1.36;82.19
20889;BME280;10604;51.976;7.594;2023-01-29T08:22:14;102065.03;;;1.32;81.94
20889;BME280;10604;51.976;7.594;2023-01-29T08:24:41;102063.69;;;1.46;81.60
20889;BME280;10604;51.976;7.594;2023-01-29T08:27:07;102057.00;;;1.54;81.96
20889;BME280;10604;51.976;7.594;2023-01-29T08:29:32;102049.16;;;1.52;81.93
20889;BME280;10604;51.976;7.594;2023-01-29T08:31:57;102057.00;;;1.54;81.66
20889;BME280;10604;51.976;7.594;2023-01-29T08:34:23;102050.03;;;1.53;81.21
20889;BME280;10604;51.976;7.594;2023-01-29T08:36:48;102052.59;;;1.51;81.54
20889;BME280;10604;51.976;7.594;2023-01-29T08:39:14;102050.22;;;1.59;81.55
20889;BME280;10604;51.976;7.594;2023-01-29T08:41:39;102038.03;;;1.58;81.56
20889;BME280;10604;51.976;7.594;2023-01-29T08:44:04;102025.72;;;1.51;81.17
20889;BME280;10604;51.976;7.594;2023-01-29T08:46:30;102024.22;;;1.59;81.51
20889;BME280;10604;51.976;7.594;2023-01-29T08:48:56;102030.66;;;1.73;80.96
20889;BME280;10604;51.976;7.594;2023-01-29T08:51:21;102034.31;;;1.80;81.28
20889;BME280;10604;51.976;7.594;2023-01-29T08:53:48;102032.63;;;1.82;80.83
20889;BME280;10604;51.976;7.594;2023-01-29T08:56:13;102034.25;;;1.78;80.49
20889;BME280;10604;51.976;7.594;2023-01-29T08:58:40;102041.22;;;1.79;80.58
20889;BME280;10604;51.976;7.594;2023-01-29T09:01:10;102044.22;;;1.94;80.05
20889;BME280;10604;51.976;7.594;2023-01-29T09:03:36;102024.78;;;1.80;79.95
20889;BME280;10604;51.976;7.594;2023-01-29T09:06:05;102032.69;;;1.85;80.29
20889;BME280;10604;51.976;7.594;2023-01-29T09:08:31;102030.47;;;1.99;80.41
20889;BME280;10604;51.976;7.594;2023-01-29T09:10:57;102021.59;;;1.90;80.11
20889;BME280;10604;51.976;7.594;2023-01-29T09:13:23;102017.97;;;1.85;80.77
20889;BME280;10604;51.976;7.594;2023-01-29T09:15:49;102031.91;;;1.87;80.77
20889;BME280;10604;51.976;7.594;2023-01-29T09:18:14;102019.16;;;1.96;80.19
20889;BME280;10604;51.976;7.594;2023-01-29T09:20:39;102014.69;;;1.92;80.37
20889;BME280;10604;51.976;7.594;2023-01-29T09:23:07;102016.25;;;1.84;80.67
20889;BME280;10604;51.976;7.594;2023-01-29T09:25:33;102016.50;;;1.95;80.68
20889;BME280;10604;51.976;7.594;2023-01-29T09:27:59;102012.03;;;1.89;80.69
20889;BME280;10604;51.976;7.594;2023-01-29T09:30:24;102012.44;;;2.05;80.22
20889;BME280;10604;51.976;7.594;2023-01-29T09:32:49;102021.81;;;2.00;80.03
20889;BME280;10604;51.976;7.594;2023-01-29T09:35:15;102026.13;;;1.98;80.01
20889;BME280;10604;51.976;7.594;2023-01-29T09:37:40;102022.69;;;2.00;80.19
20889;BME280;10604;51.976;7.594;2023-01-29T09:40:07;102032.31;;;2.03;80.01
20889;BME280;10604;51.976;7.594;2023-01-29T09:42:49;102028.09;;;2.08;79.41
20889;BME280;10604;51.976;7.594;2023-01-29T09:45:23;102030.53;;;2.02;79.31
20889;BME280;10604;51.976;7.594;2023-01-29T09:47:49;102031.63;;;2.10;79.87
20889;BME280;10604;51.976;7.594;2023-01-29T09:50:48;102037.50;;;2.03;79.44
20889;BME280;10604;51.976;7.594;2023-01-29T09:53:53;102040.94;;;2.02;79.92
20889;BME280;10604;51.976;7.594;2023-01-29T09:56:23;102042.97;;;2.12;80.03
20889;BME280;10604;51.976;7.594;2023-01-29T09:58:56;102048.22;;;2.15;79.86
20889;BME280;10604;51.976;7.594;2023-01-29T10:09:42;102032.84;;;2.24;78.97
20889;BME280;10604;51.976;7.594;2023-01-29T10:25:46;101989.31;;;2.17;79.15
20889;BME280;10604;51.976;7.594;2023-01-29T10:28:17;101980.50;;;2.12;79.88
20889;BME280;10604;51.976;7.594;2023-01-29T10:30:49;101976.91;;;2.07;79.81
20889;BME280;10604;51.976;7.594;2023-01-29T10:33:20;101978.81;;;2.14;80.09
20889;BME280;10604;51.976;7.594;2023-01-29T10:35:49;101982.41;;;2.19;79.30
20889;BME280;10604;51.976;7.594;2023-01-29T10:43:41;101993.34;;;2.40;78.97
20889;BME280;10604;51.976;7.594;2023-01-29T10:46:24;101990.50;;;2.31;79.05
20889;BME280;10604;51.976;7.594;2023-01-29T10:49:00;101981.81;;;2.30;79.44
20889;BME280;10604;51.976;7.594;2023-01-29T10:51:40;101971.59;;;2.38;79.54
20889;BME280;10604;51.976;7.594;2023-01-29T10:57:27;101974.19;;;2.38;79.57
20889;BME280;10604;51.976;7.594;2023-01-29T11:02:47;101961.28;;;2.41;78.79
20889;BME280;10604;51.976;7.594;2023-01-29T11:08:00;101942.09;;;2.38;79.06
20889;BME280;10604;51.976;7.594;2023-01-29T11:10:27;101942.69;;;2.26;79.35
20889;BME280;10604;51.976;7.594;2023-01-29T11:12:55;101930.75;;;2.34;79.12
20889;BME280;10604;51.976;7.594;2023-01-29T11:15:25;101923.28;;;2.51;79.38
20889;BME280;10604;51.976;7.594;2023-01-29T11:18:07;101922.69;;;2.62;78.52
20889;BME280;10604;51.976;7.594;2023-01-29T11:20:39;101914.41;;;2.82;77.96
20889;BME280;10604;51.976;7.594;2023-01-29T11:23:24;101914.22;;;2.72;77.89
20889;BME280;10604;51.976;7.594;2023-01-29T11:25:54;101919.63;;;2.82;77.62
20889;BME280;10604;51.976;7.594;2023-01-29T11:28:44;101922.75;;;2.65;77.48
20889;BME280;10604;51.976;7.594;2023-01-29T11:33:46;101929.44;;;2.54;77.71
20889;BME280;10604;51.976;7.594;2023-01-29T11:36:20;101924.03;;;2.45;78.46
20889;BME280;10604;51.976;7.594;2023-01-29T11:38:46;101927.44;;;2.41;78.02
20889;BME280;10604;51.976;7.594;2023-01-29T11:41:15;101905.91;;;2.48;77.26
20889;BME280;10604;51.976;7.594;2023-01-29T11:43:46;101909.69;;;2.64;77.61
20889;BME280;10604;51.976;7.594;2023-01-29T11:46:13;101906.28;;;2.66;77.57
20889;BME280;10604;51.976;7.594;2023-01-29T11:48:45;101888.81;;;2.61;77.20
20889;BME280;10604;51.976;7.594;2023-01-29T11:51:21;101896.06;;;2.75;77.36
20889;BME280;10604;51.976;7.594;2023-01-29T11:53:55;101884.63;;;2.70;77.04
20889;BME280;10604;51.976;7.594;2023-01-29T11:56:28;101876.22;;;2.82;77.13
20889;BME280;10604;51.976;7.594;2023-01-29T11:58:57;101870.31;;;2.92;77.04
20889;BME280;10604;51.976;7.594;2023-01-29T12:01:35;101864.31;;;2.95;76.43
20889;BME280;10604;51.976;7.594;2023-01-29T12:04:03;101853.94;;;2.98;77.00
20889;BME280;10604;51.976;7.594;2023-01-29T12:06:41;101854.75;;;2.95;76.77
20889;BME280;10604;51.976;7.594;2023-01-29T12:09:12;101852.19;;;2.97;75.65
20889;BME280;10604;51.976;7.594;2023-01-29T12:11:39;101840.19;;;3.05;76.07
20889;BME280;10604;51.976;7.594;2023-01-29T12:14:22;101829.47;;;2.90;76.18
20889;BME280;10604;51.976;7.594;2023-01-29T12:17:18;101829.75;;;3.05;76.35
20889;BME280;10604;51.976;7.594;2023-01-29T12:19:46;101829.81;;;3.08;76.78
20889;BME280;10604;51.976;7.594;2023-01-29T12:25:08;101829.47;;;2.90;75.75
20889;BME280;10604;51.976;7.594;2023-01-29T12:33:51;101810.44;;;2.94;76.16
20889;BME280;10604;51.976;7.594;2023-01-29T12:36:30;101809.59;;;2.95;75.94
20889;BME280;10604;51.976;7.594;2023-01-29T12:38:56;101804.59;;;3.07;75.78
20889;BME280;10604;51.976;7.594;2023-01-29T12:41:43;101792.66;;;3.18;75.43
20889;BME280;10604;51.976;7.594;2023-01-29T12:44:20;101801.22;;;3.11;75.22
20889;BME280;10604;51.976;7.594;2023-01-29T12:46:59;101792.00;;;3.31;74.71
20889;BME280;10604;51.976;7.594;2023-01-29T12:49:32;101786.72;;;3.27;74.71
20889;BME280;10604;51.976;7.594;2023-01-29T12:54:40;101785.22;;;3.42;73.68
20889;BME280;10604;51.976;7.594;2023-01-29T12:57:22;101772.75;;;3.23;74.13
20889;BME280;10604;51.976;7.594;2023-01-29T12:59:53;101783.06;;;3.17;74.18
20889;BME280;10604;51.976;7.594;2023-01-29T13:02:33;101774.31;;;3.13;74.68
20889;BME280;10604;51.976;7.594;2023-01-29T13:05:17;101766.50;;;3.15;74.68
20889;BME280;10604;51.976;7.594;2023-01-29T13:07:47;101769.31;;;3.27;74.76
20889;BME280;10604;51.976;7.594;2023-01-29T13:10:18;101769.63;;;3.45;73.74
20889;BME280;10604;51.976;7.594;2023-01-29T13:12:58;101755.69;;;3.43;73.33
20889;BME280;10604;51.976;7.594;2023-01-29T13:15:33;101746.91;;;3.38;74.05
20889;BME280;10604;51.976;7.594;2023-01-29T13:20:48;101740.03;;;3.43;74.10
20889;BME280;10604;51.976;7.594;2023-01-29T13:23:39;101743.50;;;3.42;73.68
20889;BME280;10604;51.976;7.594;2023-01-29T13:26:07;101738.25;;;3.39;73.65
20889;BME280;10604;51.976;7.594;2023-01-29T13:28:33;101742.41;;;3.28;73.06
20889;BME280;10604;51.976;7.594;2023-01-29T13:34:06;101733.50;;;3.14;74.05
20889;BME280;10604;51.976;7.594;2023-01-29T13:36:33;101731.09;;;3.26;74.39
20889;BME280;10604;51.976;7.594;2023-01-29T13:39:05;101729.19;;;3.16;74.17
20889;BME280;10604;51.976;7.594;2023-01-29T13:41:37;101741.41;;;3.20;74.41
20889;BME280;10604;51.976;7.594;2023-01-29T13:44:05;101738.00;;;3.24;73.86
20889;BME280;10604;51.976;7.594;2023-01-29T13:46:32;101734.59;;;3.28;74.27
20889;BME280;10604;51.976;7.594;2023-01-29T13:48:58;101734.34;;;3.13;74.34
20889;BME280;10604;51.976;7.594;2023-01-29T13:51:34;101722.22;;;3.15;74.11
20889;BME280;10604;51.976;7.594;2023-01-29T13:54:13;101717.69;;;3.03;74.99
20889;BME280;10604;51.976;7.594;2023-01-29T13:56:42;101718.63;;;3.08;74.94
20889;BME280;10604;51.976;7.594;2023-01-29T13:59:21;101717.16;;;3.24;74.27
20889;BME280;10604;51.976;7.594;2023-01-29T14:17:14;101698.06;;;3.25;74.67
20889;BME280;10604;51.976;7.594;2023-01-29T14:19:51;101693.72;;;3.26;75.14
20889;BME280;10604;51.976;7.594;2023-01-29T14:22:22;101687.56;;;3.22;74.44
20889;BME280;10604;51.976;7.594;2023-01-29T14:24:53;101678.84;;;3.20;75.40
20889;BME280;10604;51.976;7.594;2023-01-29T14:27:22;101678.09;;;3.27;74.80
20889;BME280;10604;51.976;7.594;2023-01-29T14:29:50;101685.03;;;3.25;74.53
20889;BME280;10604;51.976;7.594;2023-01-29T14:32:22;101692.75;;;3.19;74.69
20889;BME280;10604;51.976;7.594;2023-01-29T14:37:40;101682.34;;;3.19;74.84
20889;BME280;10604;51.976;7.594;2023-01-29T14:43:25;101677.06;;;3.16;74.42
20889;BME280;10604;51.976;7.594;2023-01-29T14:45:40;101682.28;;;3.16;74.61
20889;BME280;10604;51.976;7.594;2023-01-29T14:53:11;101687.56;;;3.22;75.18
20889;BME280;10604;51.976;7.594;2023-01-29T15:00:52;101675.22;;;3.09;75.37
20889;BME280;10604;51.976;7.594;2023-01-29T15:03:28;101676.03;;;3.06;75.78
20889;BME280;10604;51.976;7.594;2023-01-29T15:05:58;101675.16;;;3.06;75.77
20889;BME280;10604;51.976;7.594;2023-01-29T15:08:36;101673.44;;;3.06;75.55
20889;BME280;10604;51.976;7.594;2023-01-29T15:11:07;101680.53;;;3.15;75.60
20889;BME280;10604;51.976;7.594;2023-01-29T15:13:56;101673.59;;;3.17;75.62
20889;BME280;10604;51.976;7.594;2023-01-29T15:16:31;101678.84;;;3.20;75.70
20889;BME280;10604;51.976;7.594;2023-01-29T15:19:24;101669.19;;;3.11;75.59
20889;BME280;10604;51.976;7.594;2023-01-29T15:24:35;101676.97;;;3.10;75.71
20889;BME280;10604;51.976;7.594;2023-01-29T15:27:01;101670.81;;;3.05;75.77
20889;BME280;10604;51.976;7.594;2023-01-29T15:29:27;101670.66;;;2.96;75.86